Dorris, CA (96023)

11:32 AM PDT on September 19, 2014 (GMT -0700)
Cal-Ore Telephone | Change Station
CLOSE
Current Station
Personal Weather Station
Location: Dorris, CA
Elevation: 4270 ft
Nearby Weather Stations

Elev 4270 ft 41.96 °N, 121.93 °W | Updated 42 seconds ago

Clear
Clear
69.4 °F
Feels Like 69.4 °F
N
2.0
Wind Variable Wind from North
Gusts 7.0 mph

Today
High -- | Low -- °F
--% Chance of Precip.
Yesterday
High -- | Low -- °F
Precip. -- in
6:52 AM 7:10 PM
Waning Crescent, 17% visible
Pressure 30.04 in
Visibility 10.0 miles
Clouds Clear
Dew Point 50 °F
Humidity 49%
Rainfall 0.00 in
Snow Depth 0 in , 0 in , 0 in
UV 6 out of 12
Pollen 4.20 out of 12
Air Quality Not available.
Flu Activity Not available.
METAR KLMT 191753Z 01004KT 10SM CLR 19/09 A3014 RMK AO2 SLP172 T01940089 10194 20044 50000

More Conditions Fewer Conditions

Pressure 30.04 in
Visibility 10.0 miles
Clouds Clear
Dew Point 50 °F
Humidity 49%
Rainfall 0.00 in
Snow Depth 0 in , 0 in , 0 in
UV 6 out of 12
Pollen 4.20 out of 12
Air Quality Not available.
Flu Activity Not available.
METAR KLMT 191753Z 01004KT 10SM CLR 19/09 A3014 RMK AO2 SLP172 T01940089 10194 20044 50000

More Conditions Fewer Conditions

10-Day Weather Forecast

Almanac

Astronomy

Sep. 19, 2014 Rise Set
Actual Time 6:52 AM PDT 7:10 PM PDT
Civil Twilight 6:24 AM PDT 7:37 PM PDT
Nautical Twilight 5:51 AM PDT 8:10 PM PDT
Astronomical Twilight 5:17 AM PDT 8:44 PM PDT
Moon 2:38 AM PDT 4:44 PM PDT
Length of Visible Light 13h 13m
Length of Day
12h 17m
Tomorrow will be 2m 48s shorter.
Waning Crescent, 17% of the Moon is Illuminated
Today
Waning Crescent
Sep 24
New
Oct 1
First Quarter
Oct 8
Full
Oct 15
Last Quarter

Today's Extremes

State Highs State Lows

Community

WunderPhotos

Upload Photos

1,754,679 photos uploaded!

WunderBlogs® & News

Nearby

Snow Depth

Station Depth Elevation
Spratt Creek 0 in 6200 ft
Rubicon #2 0 in 7500 ft
Monitor Pass 0 in 8350 ft
Leavitt Meadows 0 in 7200 ft
Leavitt Lake 0 in 9400 ft

Earthquake Activity

City Distance Mag. Time & Date
No recent earthquake activity has been reported nearby.
Minimum magnitude displayed is 2.5.

Coastal Water Temperatures

Place Temperature
No Stations Reporting

Nearby Weather Stations